Time;durP1;ratioP1;P1;durP2;ratioP2;P2;SDS_P1;SDS_P2;PMS_P1;PMS_P2;Temp;Humidity;BMP_temperature;BMP_pressure;BME280_temperature;BME280_humidity;BME280_pressure;Samples;Min_cycle;Max_cycle;Signal;HPM_P1;HPM_P2
2022/06/10 00:01:20;;;;;;;9.97;7.30;;;;;;;17.03;100.00;98317.38;5089473;28;20236;-89
2022/06/10 00:03:46;;;;;;;9.97;6.57;;;;;;;16.97;100.00;98313.69;5089748;28;20277;-85
2022/06/10 00:06:13;;;;;;;9.13;6.83;;;;;;;16.89;100.00;98311.16;5089543;28;20212;-90
2022/06/10 00:08:43;;;;;;;9.93;7.23;;;;;;;16.84;100.00;98313.44;5089312;28;20202;-89
2022/06/10 00:11:10;;;;;;;8.93;7.17;;;;;;;16.83;100.00;98312.63;5089386;28;20297;-85
2022/06/10 00:13:40;;;;;;;11.17;6.97;;;;;;;16.77;100.00;98308.16;5089218;28;20208;-90
2022/06/10 00:16:07;;;;;;;10.57;7.33;;;;;;;16.73;100.00;98314.59;5089208;28;20222;-89
2022/06/10 00:18:34;;;;;;;9.50;6.90;;;;;;;16.76;100.00;98322.03;5089121;28;20209;-84
2022/06/10 00:21:02;;;;;;;9.83;6.97;;;;;;;16.73;100.00;98314.59;5089098;28;20755;-84
2022/06/10 00:23:28;;;;;;;9.23;7.17;;;;;;;16.73;100.00;98319.78;5088932;28;20220;-84
2022/06/10 00:25:54;;;;;;;9.77;7.53;;;;;;;16.72;100.00;98316.34;5088949;28;20234;-84
2022/06/10 00:28:20;;;;;;;8.90;7.27;;;;;;;16.71;100.00;98308.81;5088867;28;20219;-84
2022/06/10 00:30:48;;;;;;;9.40;6.87;;;;;;;16.68;100.00;98309.13;5089150;28;20593;-87
2022/06/10 00:33:14;;;;;;;10.50;7.90;;;;;;;16.65;100.00;98315.44;5088437;28;20218;-84
2022/06/10 00:35:41;;;;;;;10.87;7.80;;;;;;;16.60;100.00;98306.59;5088956;28;20305;-84
2022/06/10 00:38:08;;;;;;;12.80;7.47;;;;;;;16.56;100.00;98310.50;5088964;28;20303;-83
2022/06/10 00:40:38;;;;;;;10.53;8.00;;;;;;;16.55;100.00;98308.88;5088551;28;20230;-83
2022/06/10 00:43:05;;;;;;;11.90;8.40;;;;;;;16.53;100.00;98315.00;5088860;28;20217;-89
2022/06/10 00:46:18;;;;;;;13.47;8.17;;;;;;;16.55;100.00;98314.84;5088784;28;20738;-89
2022/06/10 00:48:48;;;;;;;11.53;8.13;;;;;;;16.55;100.00;98311.44;4986704;28;20709;-83
2022/06/10 00:51:35;;;;;;;11.47;8.80;;;;;;;16.51;100.00;98316.94;4987035;28;20220;-89
2022/06/10 00:54:07;;;;;;;12.60;8.77;;;;;;;16.50;100.00;98307.59;5057635;28;20253;-87
2022/06/10 00:56:36;;;;;;;11.43;8.60;;;;;;;16.53;100.00;98312.44;5088693;28;20317;-83
2022/06/10 00:59:08;;;;;;;13.00;8.80;;;;;;;16.51;100.00;98313.56;5088478;28;20260;-89
2022/06/10 01:01:35;;;;;;;11.93;9.37;;;;;;;16.54;100.00;98313.22;5088309;28;20241;-88
2022/06/10 01:04:02;;;;;;;12.70;9.60;;;;;;;16.50;100.00;98312.75;5088650;28;20656;-83
2022/06/10 01:06:28;;;;;;;13.00;9.67;;;;;;;16.54;100.00;98308.06;5088322;28;20642;-84
2022/06/10 01:08:56;;;;;;;14.37;10.47;;;;;;;16.55;100.00;98312.28;5088548;28;20598;-88
2022/06/10 01:11:31;;;;;;;16.17;10.50;;;;;;;16.55;100.00;98314.03;5088895;28;20216;-89
2022/06/10 01:14:06;;;;;;;15.50;10.80;;;;;;;16.52;100.00;98304.84;5088665;28;20707;-88
2022/06/10 01:16:44;;;;;;;15.30;10.60;;;;;;;16.52;100.00;98305.66;5088094;28;20337;-82
2022/06/10 01:19:32;;;;;;;17.67;10.87;;;;;;;16.48;100.00;98301.78;5088516;28;20822;-87
2022/06/10 01:22:26;;;;;;;16.10;10.70;;;;;;;16.45;100.00;98299.56;5088620;28;20756;-82
2022/06/10 01:25:12;;;;;;;13.40;10.47;;;;;;;16.48;100.00;98306.97;5088296;28;20391;-83
2022/06/10 01:28:05;;;;;;;13.57;10.97;;;;;;;16.54;100.00;98297.75;5088328;28;20217;-89
2022/06/10 01:31:19;;;;;;;15.33;10.80;;;;;;;16.46;100.00;98296.03;5088340;28;20619;-82
2022/06/10 01:34:02;;;;;;;15.40;11.33;;;;;;;16.43;100.00;98301.50;5087928;28;20219;-83
2022/06/10 01:36:39;;;;;;;15.03;10.60;;;;;;;16.41;100.00;98298.28;5088151;28;20652;-89
2022/06/10 01:39:11;;;;;;;14.13;10.83;;;;;;;16.39;100.00;98299.44;5088272;28;20306;-89
2022/06/10 01:41:43;;;;;;;15.63;10.80;;;;;;;16.39;100.00;98300.22;5087959;28;20256;-82
2022/06/10 01:44:31;;;;;;;16.37;11.83;;;;;;;16.37;100.00;98299.56;5088196;28;20241;-82
2022/06/10 01:47:03;;;;;;;15.57;11.17;;;;;;;16.35;100.00;98303.28;5091571;28;20245;-82
2022/06/10 01:49:35;;;;;;;15.50;11.57;;;;;;;16.35;100.00;98303.28;5091504;28;20681;-82
2022/06/10 01:52:10;;;;;;;16.10;11.80;;;;;;;16.35;100.00;98298.97;5091439;28;20715;-87
2022/06/10 01:54:42;;;;;;;18.60;12.07;;;;;;;16.34;100.00;98299.91;5091917;28;20268;-84
2022/06/10 01:57:13;;;;;;;17.20;12.33;;;;;;;16.32;100.00;98304.47;5091581;28;20211;-82
2022/06/10 01:59:44;;;;;;;18.47;13.17;;;;;;;16.29;100.00;98300.44;5091491;28;20238;-87
2022/06/10 02:02:15;;;;;;;17.63;12.50;;;;;;;16.29;100.00;98307.38;5091276;28;20246;-87
2022/06/10 02:04:50;;;;;;;20.23;13.93;;;;;;;16.31;100.00;98313.16;5091223;28;20248;-89
2022/06/10 02:07:21;;;;;;;18.20;13.00;;;;;;;16.25;100.00;98313.81;5091454;28;20259;-83
2022/06/10 02:09:51;;;;;;;20.83;14.07;;;;;;;16.27;100.00;98314.47;5091050;28;20244;-87
2022/06/10 02:12:21;;;;;;;21.20;14.23;;;;;;;16.33;100.00;98315.56;5091077;28;20217;-82
2022/06/10 02:14:52;;;;;;;18.93;14.53;;;;;;;16.34;100.00;98317.97;5091629;28;20613;-83
2022/06/10 02:17:20;;;;;;;19.27;14.03;;;;;;;16.36;100.00;98321.19;5090936;28;20210;-82
2022/06/10 02:19:52;;;;;;;20.20;14.03;;;;;;;16.37;100.00;98320.22;5091120;28;20245;-88
2022/06/10 02:22:27;;;;;;;22.37;14.27;;;;;;;16.39;100.00;98335.53;5091135;28;20202;-83
2022/06/10 02:24:58;;;;;;;19.07;14.10;;;;;;;16.35;100.00;98332.50;5091058;28;20237;-82
2022/06/10 02:27:33;;;;;;;21.00;15.30;;;;;;;16.45;100.00;98340.84;5090801;28;20267;-82
2022/06/10 02:30:03;;;;;;;22.27;15.73;;;;;;;16.47;100.00;98343.25;5091135;28;20233;-83
2022/06/10 02:32:30;;;;;;;24.27;17.67;;;;;;;16.51;100.00;98350.50;5091066;28;20217;-88
2022/06/10 02:34:58;;;;;;;26.17;18.80;;;;;;;16.53;100.00;98356.28;5090612;28;20232;-86
2022/06/10 02:37:33;;;;;;;30.50;18.63;;;;;;;16.57;100.00;98358.53;5090761;28;20262;-82
2022/06/10 02:40:09;;;;;;;27.90;19.30;;;;;;;16.59;100.00;98361.78;5090720;28;20240;-89
2022/06/10 02:42:43;;;;;;;29.73;20.43;;;;;;;16.63;100.00;98370.78;5090712;28;20213;-88
2022/06/10 02:45:19;;;;;;;30.43;20.60;;;;;;;16.66;100.00;98373.81;5090563;28;20230;-83
2022/06/10 02:47:51;;;;;;;32.30;21.67;;;;;;;16.69;100.00;98372.69;5090620;28;20243;-88
2022/06/10 02:50:18;;;;;;;36.57;24.37;;;;;;;16.81;100.00;98376.53;5090277;28;20230;-88
2022/06/10 02:52:45;;;;;;;35.53;23.33;;;;;;;16.78;100.00;98382.03;5090579;28;20596;-89
2022/06/10 02:55:15;;;;;;;39.47;24.83;;;;;;;16.77;100.00;98377.84;5090394;28;20499;-83
2022/06/10 03:03:21;;;;;;;40.40;25.03;;;;;;;16.82;100.00;98382.53;5090601;28;20259;-83
2022/06/10 03:06:00;;;;;;;39.00;24.33;;;;;;;16.83;100.00;98387.50;5090423;28;20249;-84
2022/06/10 03:08:31;;;;;;;40.87;23.97;;;;;;;16.82;100.00;98388.50;5090198;28;20288;-90
2022/06/10 03:11:09;;;;;;;36.40;22.03;;;;;;;16.84;100.00;98389.13;5090342;28;20630;-88
2022/06/10 03:13:53;;;;;;;34.33;22.97;;;;;;;16.84;100.00;98396.88;5090612;28;20221;-83
2022/06/10 03:16:42;;;;;;;35.97;21.70;;;;;;;16.84;100.00;98399.47;5090408;28;20601;-83
2022/06/10 03:19:26;;;;;;;41.77;21.93;;;;;;;16.82;100.00;98398.81;5090147;28;20234;-88
2022/06/10 03:22:03;;;;;;;75.20;21.53;;;;;;;16.85;100.00;98398.47;5090043;28;20226;-89
2022/06/10 03:24:38;;;;;;;49.60;21.37;;;;;;;16.78;100.00;98397.53;5090383;28;20291;-83
2022/06/10 03:27:13;;;;;;;55.33;21.87;;;;;;;16.76;100.00;98402.06;5089923;28;20217;-89
2022/06/10 03:29:47;;;;;;;34.87;21.50;;;;;;;16.73;100.00;98400.59;5089785;28;20226;-83
2022/06/10 03:32:22;;;;;;;124.57;23.53;;;;;;;16.75;100.00;98403.00;5090052;28;20296;-88
2022/06/10 03:34:54;;;;;;;52.80;22.47;;;;;;;16.72;100.00;98408.50;5089712;28;20225;-84
2022/06/10 03:37:22;;;;;;;44.53;22.77;;;;;;;16.72;100.00;98408.50;5089805;28;20213;-84
2022/06/10 03:39:50;;;;;;;64.43;21.67;;;;;;;16.75;100.00;98408.16;5089748;28;20773;-83
2022/06/10 03:42:19;;;;;;;44.03;22.20;;;;;;;16.72;100.00;98403.31;5089626;28;20237;-88
2022/06/10 03:44:49;;;;;;;100.97;23.20;;;;;;;16.75;100.00;98403.00;5089766;28;20316;-89
2022/06/10 03:47:18;;;;;;;85.33;23.63;;;;;;;16.76;100.00;98404.66;5089598;28;20607;-83
2022/06/10 03:49:50;;;;;;;80.40;22.17;;;;;;;16.77;100.00;98406.25;5089986;28;20222;-88
2022/06/10 03:52:25;;;;;;;209.97;25.87;;;;;;;16.73;100.00;98412.69;5089638;28;20209;-83
2022/06/10 03:54:52;;;;;;;50.87;24.60;;;;;;;16.73;100.00;98413.50;5089672;28;20229;-83
2022/06/10 03:57:18;;;;;;;48.27;24.83;;;;;;;16.73;100.00;98420.44;5089543;28;20202;-89
2022/06/10 03:59:45;;;;;;;95.50;24.43;;;;;;;16.83;100.00;98415.09;5089564;28;20267;-90
2022/06/10 04:02:11;;;;;;;47.63;24.13;;;;;;;16.87;100.00;98422.38;5089723;28;20225;-83
2022/06/10 04:04:38;;;;;;;107.17;24.73;;;;;;;16.92;100.00;98421.84;5089158;28;20233;-82
2022/06/10 04:07:05;;;;;;;134.97;24.90;;;;;;;16.94;100.00;98425.88;5089566;28;20206;-83
2022/06/10 04:09:32;;;;;;;60.43;24.97;;;;;;;16.92;100.00;98425.22;5088938;28;20268;-89
2022/06/10 04:11:58;;;;;;;70.83;25.07;;;;;;;16.93;100.00;98420.88;5089130;28;20640;-89
2022/06/10 04:14:24;;;;;;;112.47;25.63;;;;;;;16.97;100.00;98414.41;5089036;28;20222;-88
2022/06/10 04:16:50;;;;;;;46.17;22.97;;;;;;;16.96;100.00;98420.56;5089611;28;20655;-83
2022/06/10 04:19:17;;;;;;;66.63;23.90;;;;;;;16.99;100.00;98420.22;5089136;28;20234;-89
2022/06/10 04:21:44;;;;;;;57.77;23.60;;;;;;;16.96;100.00;98425.72;5089180;28;20240;-82
2022/06/10 04:24:11;;;;;;;43.33;22.23;;;;;;;17.02;100.00;98419.09;5089528;28;20237;-88
2022/06/10 04:26:37;;;;;;;36.03;22.43;;;;;;;17.06;100.00;98420.34;5089181;28;20206;-88
2022/06/10 04:29:03;;;;;;;65.10;23.43;;;;;;;17.05;100.00;98421.31;5088835;28;20234;-90
2022/06/10 04:31:30;;;;;;;73.53;23.37;;;;;;;17.07;100.00;98427.91;5088859;28;20213;-89
2022/06/10 04:33:56;;;;;;;61.60;22.40;;;;;;;17.06;100.00;98428.09;5089368;28;20594;-89
2022/06/10 04:36:22;;;;;;;57.53;23.67;;;;;;;17.09;100.00;98427.75;5088861;28;20719;-89
2022/06/10 04:38:48;;;;;;;66.17;23.80;;;;;;;17.11;100.00;98429.19;5088780;28;20715;-83
2022/06/10 04:41:15;;;;;;;37.93;23.77;;;;;;;17.07;100.00;98421.94;5088787;28;20712;-83
2022/06/10 04:43:43;;;;;;;37.00;23.23;;;;;;;17.12;100.00;98424.81;5088867;28;20221;-83
2022/06/10 04:46:15;;;;;;;51.23;24.27;;;;;;;17.20;100.00;98427.38;5088893;28;20237;-82
2022/06/10 04:48:41;;;;;;;83.50;24.27;;;;;;;17.22;100.00;98430.59;5088955;28;20616;-82
2022/06/10 04:51:07;;;;;;;90.30;24.90;;;;;;;17.16;100.00;98439.84;5089098;28;20215;-83
2022/06/10 04:53:34;;;;;;;70.13;23.83;;;;;;;17.21;100.00;98444.47;5088734;28;20210;-82
2022/06/10 04:56:01;;;;;;;69.00;23.57;;;;;;;17.18;100.00;98444.81;5088811;28;20229;-82
2022/06/10 04:58:28;;;;;;;181.47;26.00;;;;;;;17.17;100.00;98449.19;5088523;28;20206;-82
2022/06/10 05:00:54;;;;;;;61.27;24.17;;;;;;;17.14;100.00;98443.56;5088529;28;20240;-90
2022/06/10 05:03:20;;;;;;;40.23;23.50;;;;;;;17.17;100.00;98443.22;5088809;28;20235;-91
2022/06/10 05:05:46;;;;;;;58.83;24.47;;;;;;;17.21;100.00;98449.66;5088459;28;20290;-88
2022/06/10 05:08:15;;;;;;;44.23;24.67;;;;;;;17.22;100.00;98461.59;5088613;28;20235;-84
2022/06/10 05:10:41;;;;;;;53.10;24.63;;;;;;;17.28;100.00;98457.50;5088698;28;20683;-83
2022/06/10 05:13:07;;;;;;;94.17;24.60;;;;;;;17.28;100.00;98460.94;5088660;28;20236;-84
2022/06/10 05:15:34;;;;;;;101.60;25.00;;;;;;;17.32;100.00;98457.03;5088517;28;20234;-83
2022/06/10 05:18:00;;;;;;;51.00;24.73;;;;;;;17.33;100.00;98463.00;5088308;28;20294;-85
2022/06/10 05:20:29;;;;;;;50.83;22.80;;;;;;;17.38;100.00;98471.84;5089402;28;20735;-84
2022/06/10 05:22:56;;;;;;;58.77;23.13;;;;;;;17.35;100.00;98474.78;5092010;28;20218;-84
2022/06/10 05:25:22;;;;;;;58.37;24.53;;;;;;;17.39;100.00;98477.81;5091936;28;20225;-89
2022/06/10 05:27:48;;;;;;;45.97;25.03;;;;;;;17.37;100.00;98477.19;5092151;28;20210;-86
2022/06/10 05:30:18;;;;;;;48.73;26.67;;;;;;;17.45;100.00;98476.31;5091940;28;20729;-84
2022/06/10 05:32:45;;;;;;;45.07;24.80;;;;;;;17.48;100.00;98481.16;5091640;28;20213;-84
2022/06/10 05:35:11;;;;;;;43.20;23.87;;;;;;;17.52;100.00;98483.25;5091676;28;20237;-89
2022/06/10 05:37:38;;;;;;;45.53;25.07;;;;;;;17.57;100.00;98480.13;5091532;28;20240;-89
2022/06/10 05:40:05;;;;;;;57.03;25.53;;;;;;;17.63;100.00;98482.06;5091718;28;20242;-84
2022/06/10 05:42:32;;;;;;;54.97;25.23;;;;;;;17.68;100.00;98477.16;5091454;28;20237;-89
2022/06/10 05:44:58;;;;;;;44.50;25.23;;;;;;;17.71;100.00;98482.00;5091773;28;20249;-84
2022/06/10 05:47:27;;;;;;;58.07;24.43;;;;;;;17.71;100.00;98482.00;5091779;28;20209;-83
2022/06/10 05:49:56;;;;;;;51.23;24.63;;;;;;;17.76;100.00;98479.69;5091545;28;20241;-84
2022/06/10 05:52:27;;;;;;;46.03;25.23;;;;;;;17.74;100.00;98484.22;5091888;28;20221;-82
2022/06/10 05:54:56;;;;;;;48.27;24.47;;;;;;;17.77;100.00;98486.50;5091323;28;20230;-82
2022/06/10 05:57:23;;;;;;;43.70;23.57;;;;;;;17.75;100.00;98498.78;5091609;28;20236;-83
2022/06/10 05:59:52;;;;;;;43.53;24.13;;;;;;;17.73;100.00;98500.72;5091336;28;20317;-83
2022/06/10 06:02:20;;;;;;;46.07;25.00;;;;;;;17.74;100.00;98498.94;5091160;28;20231;-88
2022/06/10 06:04:46;;;;;;;45.30;25.33;;;;;;;17.77;100.00;98501.19;5091299;28;20228;-88
2022/06/10 06:07:18;;;;;;;47.00;27.17;;;;;;;17.79;100.00;98500.06;5091570;28;20269;-83
2022/06/10 06:09:44;;;;;;;51.73;27.67;;;;;;;17.85;100.00;98503.75;5091060;28;20254;-82
2022/06/10 06:12:10;;;;;;;48.00;27.07;;;;;;;17.89;100.00;98510.22;5091413;28;20211;-82
2022/06/10 06:14:36;;;;;;;47.90;27.63;;;;;;;17.88;100.00;98499.03;5091370;28;20238;-88
2022/06/10 06:17:04;;;;;;;44.20;27.53;;;;;;;17.94;100.00;98507.09;5091057;28;20268;-88
2022/06/10 06:19:32;;;;;;;41.90;26.67;;;;;;;18.02;100.00;98507.03;5091087;28;20238;-83
2022/06/10 06:21:58;;;;;;;45.03;27.00;;;;;;;18.08;100.00;98508.94;5090924;28;20234;-88
2022/06/10 06:24:26;;;;;;;41.20;26.27;;;;;;;18.14;100.00;98520.38;5091093;28;20265;-89
2022/06/10 06:26:52;;;;;;;42.90;26.13;;;;;;;18.26;100.00;98519.78;5090993;28;20215;-89
2022/06/10 06:29:19;;;;;;;39.63;26.17;;;;;;;18.42;100.00;98520.66;5090899;28;20232;-82
2022/06/10 06:31:46;;;;;;;41.50;26.50;;;;;;;18.46;100.00;98516.72;5090225;28;20314;-84
2022/06/10 06:34:12;;;;;;;37.23;24.77;;;;;;;18.55;100.00;98516.47;5091161;28;20910;-90
2022/06/10 06:36:42;;;;;;;39.50;25.80;;;;;;;18.69;100.00;98522.66;5090996;28;20207;-84
2022/06/10 06:39:09;;;;;;;38.70;24.87;;;;;;;18.85;100.00;98526.09;5090742;28;20249;-89
2022/06/10 06:41:36;;;;;;;37.73;25.00;;;;;;;18.95;100.00;98522.25;5090843;28;20238;-83
2022/06/10 06:44:04;;;;;;;38.17;23.00;;;;;;;19.05;100.00;98526.38;5090591;28;20676;-88
2022/06/10 06:46:33;;;;;;;36.53;23.00;;;;;;;19.12;100.00;98527.28;5090529;28;20704;-82
2022/06/10 06:48:59;;;;;;;35.07;24.33;;;;;;;19.14;99.87;98525.28;5090822;28;20235;-83
2022/06/10 06:51:26;;;;;;;37.13;23.87;;;;;;;19.23;99.70;98524.25;5090538;28;20237;-89
2022/06/10 06:53:52;;;;;;;35.70;24.03;;;;;;;19.37;100.00;98528.59;5091081;28;20300;-83
2022/06/10 06:56:18;;;;;;;38.20;24.57;;;;;;;19.60;98.90;98533.63;5090544;28;20241;-82
2022/06/10 06:58:45;;;;;;;35.70;24.50;;;;;;;19.64;97.39;98536.69;5090304;28;20210;-81
2022/06/10 07:01:11;;;;;;;36.27;24.87;;;;;;;19.85;97.20;98538.53;5090537;28;20636;-86
2022/06/10 07:03:37;;;;;;;34.63;25.20;;;;;;;19.94;96.53;98542.63;5090357;28;20598;-87
2022/06/10 07:06:04;;;;;;;39.53;25.17;;;;;;;20.00;95.62;98547.06;5090177;28;20220;-82
2022/06/10 07:08:31;;;;;;;32.97;22.40;;;;;;;20.09;93.81;98545.97;5090133;28;20703;-88
2022/06/10 07:10:58;;;;;;;35.83;21.17;;;;;;;20.19;93.06;98534.47;5090298;28;20269;-82
2022/06/10 07:13:25;;;;;;;31.03;20.13;;;;;;;20.43;92.32;98534.09;5090303;28;20211;-88
2022/06/10 07:15:52;;;;;;;30.00;19.57;;;;;;;20.67;91.59;98538.09;5090209;28;20274;-89
2022/06/10 07:18:18;;;;;;;26.90;19.43;;;;;;;20.86;89.50;98541.81;5090005;28;20691;-87
2022/06/10 07:20:44;;;;;;;25.03;17.87;;;;;;;21.12;90.46;98548.16;5090107;28;20237;-88
2022/06/10 07:23:11;;;;;;;25.63;18.00;;;;;;;21.40;89.59;98541.13;5090020;28;20440;-82
2022/06/10 07:25:38;;;;;;;26.20;18.23;;;;;;;21.51;87.70;98544.19;5090021;28;20238;-87
2022/06/10 07:28:04;;;;;;;25.70;17.93;;;;;;;21.84;86.84;98547.66;5089993;28;20235;-82
2022/06/10 07:30:32;;;;;;;23.07;17.40;;;;;;;21.95;86.86;98542.91;5090007;28;20239;-83
2022/06/10 07:32:59;;;;;;;24.53;16.70;;;;;;;21.99;85.96;98557.13;5089855;28;20211;-88
2022/06/10 07:35:26;;;;;;;27.33;17.30;;;;;;;22.02;85.72;98556.72;5089834;28;20297;-84
2022/06/10 07:37:53;;;;;;;26.00;17.67;;;;;;;21.99;85.31;98562.31;5089629;28;20223;-84
2022/06/10 07:43:06;;;;;;;23.23;15.80;;;;;;;22.36;83.88;98569.63;5088701;28;20769;-89
2022/06/10 07:45:33;;;;;;;22.50;16.23;;;;;;;22.42;84.08;98568.03;5089653;28;20598;-90
2022/06/10 07:48:00;;;;;;;20.00;15.30;;;;;;;22.27;84.04;98563.00;5089766;28;20313;-89
2022/06/10 07:50:26;;;;;;;25.53;15.33;;;;;;;22.38;84.33;98557.19;5089716;28;20261;-88
2022/06/10 07:52:52;;;;;;;18.70;14.37;;;;;;;22.37;83.11;98560.03;5089769;28;20223;-84
2022/06/10 07:55:19;;;;;;;19.03;14.60;;;;;;;22.46;83.62;98568.44;5089682;28;20247;-85
2022/06/10 07:57:46;;;;;;;17.70;14.40;;;;;;;22.90;83.75;98561.81;5089658;28;20603;-83
2022/06/10 08:00:14;;;;;;;19.15;14.02;;;;;;;23.27;82.86;98560.31;5089352;28;20237;-88
2022/06/10 08:02:40;;;;;;;21.20;13.77;;;;;;;23.33;81.22;98564.72;5089465;28;20637;-90
2022/06/10 08:05:11;;;;;;;18.73;13.32;;;;;;;23.76;80.01;98560.75;5089866;28;20247;-84
2022/06/10 08:07:37;;;;;;;16.17;12.95;;;;;;;23.79;77.68;98568.16;5089435;28;20214;-83
2022/06/10 08:10:04;;;;;;;21.42;13.80;;;;;;;24.10;78.01;98565.56;5089218;28;20230;-89
2022/06/10 08:12:31;;;;;;;17.60;14.07;;;;;;;24.37;75.30;98573.22;5089550;28;20221;-90
2022/06/10 08:14:57;;;;;;;20.65;13.70;;;;;;;24.76;72.89;98573.97;5089314;28;20233;-81
2022/06/10 08:17:23;;;;;;;19.58;14.27;;;;;;;24.83;72.36;98569.47;5089325;28;20222;-88
2022/06/10 08:19:49;;;;;;;19.13;13.85;;;;;;;25.03;72.70;98570.06;5089104;28;20331;-84
2022/06/10 08:22:35;;;;;;;19.38;14.40;;;;;;;25.01;71.38;98577.31;5089038;28;20225;-89
2022/06/10 08:25:04;;;;;;;17.25;13.48;;;;;;;24.95;70.47;98580.81;5089186;28;20241;-85
2022/06/10 08:27:30;;;;;;;18.70;14.18;;;;;;;24.84;70.51;98576.28;5089304;28;20268;-84
2022/06/10 08:29:57;;;;;;;19.02;13.30;;;;;;;24.69;70.83;98594.13;5089300;28;20303;-90
2022/06/10 08:32:23;;;;;;;19.60;13.10;;;;;;;24.41;71.13;98579.66;5089187;28;20602;-87
2022/06/10 08:34:50;;;;;;;16.13;13.35;;;;;;;24.42;71.77;98583.84;5088835;28;20272;-89
2022/06/10 08:37:17;;;;;;;18.80;13.13;;;;;;;24.46;71.06;98590.28;5088737;28;20205;-83
2022/06/10 08:39:43;;;;;;;17.83;12.85;;;;;;;24.52;71.17;98592.06;5088958;28;20237;-85
2022/06/10 08:42:27;;;;;;;23.80;13.60;;;;;;;24.57;70.41;98602.66;5088695;28;20234;-87
2022/06/10 08:44:56;;;;;;;15.20;13.50;;;;;;;24.51;70.77;98597.47;5088717;28;20618;-87
2022/06/10 08:47:33;;;;;;;16.73;13.32;;;;;;;24.42;70.62;98602.13;5088922;28;20213;-89
2022/06/10 08:50:34;;;;;;;17.70;13.80;;;;;;;24.36;71.87;98600.38;5089024;28;20237;-83
2022/06/10 08:53:16;;;;;;;17.35;12.70;;;;;;;24.40;71.21;98601.53;5088681;28;20221;-83
2022/06/10 08:55:48;;;;;;;16.52;12.48;;;;;;;24.38;70.58;98611.44;5088669;28;20309;-86
2022/06/10 08:58:19;;;;;;;26.35;13.18;;;;;;;24.06;70.69;98616.66;5088683;28;20297;-84
2022/06/10 09:00:48;;;;;;;16.73;12.90;;;;;;;23.95;71.58;98617.31;5088616;28;20246;-85
2022/06/10 09:03:20;;;;;;;21.60;13.35;;;;;;;24.08;74.04;98609.38;5088618;28;20214;-83
2022/06/10 09:05:50;;;;;;;17.30;13.05;;;;;;;24.30;71.62;98622.13;5088664;28;20295;-83
2022/06/10 09:08:21;;;;;;;16.63;13.13;;;;;;;24.38;70.96;98619.28;5088534;28;20206;-86
2022/06/10 09:10:53;;;;;;;17.77;13.73;;;;;;;24.32;71.29;98620.13;5088672;28;20692;-83
2022/06/10 09:13:36;;;;;;;16.58;13.13;;;;;;;24.02;71.27;98612.84;5088491;28;20354;-88
2022/06/10 09:16:11;;;;;;;17.55;14.13;;;;;;;23.78;71.55;98624.81;5088565;28;20226;-83
2022/06/10 09:18:51;;;;;;;17.58;13.32;;;;;;;23.54;72.20;98615.84;5088474;28;20209;-89
2022/06/10 09:21:25;;;;;;;17.60;13.27;;;;;;;23.55;72.95;98612.22;5088459;28;20291;-84
2022/06/10 09:23:55;;;;;;;16.92;13.82;;;;;;;23.83;72.88;98617.16;5088403;28;20217;-89
2022/06/10 09:26:31;;;;;;;17.17;14.20;;;;;;;24.14;72.04;98608.56;5088555;28;20267;-90
2022/06/10 09:28:58;;;;;;;17.73;12.98;;;;;;;24.55;71.98;98615.16;5088347;28;20272;-88
2022/06/10 09:31:36;;;;;;;19.15;12.70;;;;;;;24.76;69.45;98615.78;5088558;28;20217;-90
2022/06/10 09:34:09;;;;;;;15.82;12.77;;;;;;;24.78;68.35;98624.19;5088171;28;20226;-85
2022/06/10 09:36:43;;;;;;;15.48;13.52;;;;;;;24.51;69.09;98619.19;5088360;28;20217;-90
2022/06/10 09:42:09;;;;;;;16.10;13.65;;;;;;;24.05;68.85;98620.25;5087353;28;20724;-83
2022/06/10 09:44:42;;;;;;;16.48;13.43;;;;;;;23.84;70.90;98620.56;5087973;28;20756;-88
2022/06/10 09:47:21;;;;;;;17.83;14.75;;;;;;;23.67;71.61;98623.59;5088350;28;20217;-90
2022/06/10 09:50:09;;;;;;;19.63;14.48;;;;;;;23.69;72.81;98611.16;5087914;28;20226;-84
2022/06/10 09:52:44;;;;;;;17.55;14.60;;;;;;;23.71;72.22;98614.41;5087886;28;20229;-84
2022/06/10 09:55:38;;;;;;;17.25;14.65;;;;;;;23.80;72.56;98611.56;5092786;28;20283;-84
2022/06/10 09:58:32;;;;;;;17.67;15.05;;;;;;;23.89;73.08;98618.94;5096695;28;20214;-84
2022/06/10 10:01:04;;;;;;;17.95;15.13;;;;;;;23.93;72.34;98632.38;5087724;28;20237;-89
2022/06/10 10:03:43;;;;;;;18.75;16.05;;;;;;;23.96;70.33;98626.72;5087853;28;20232;-83
2022/06/10 10:06:32;;;;;;;21.60;16.35;;;;;;;23.93;70.71;98621.91;5088843;28;20210;-84
2022/06/10 10:09:07;;;;;;;20.17;16.05;;;;;;;23.95;71.61;98617.31;5091119;28;20238;-89
2022/06/10 10:11:44;;;;;;;19.98;16.13;;;;;;;24.08;71.26;98609.38;5091198;28;20221;-91
2022/06/10 10:14:23;;;;;;;20.58;16.58;;;;;;;24.28;72.19;98619.72;5091469;28;20712;-84
2022/06/10 10:17:04;;;;;;;17.90;15.20;;;;;;;24.42;70.75;98617.81;5091202;28;20209;-82
2022/06/10 10:19:51;;;;;;;19.40;16.00;;;;;;;24.39;68.87;98626.09;5091169;28;20291;-85
2022/06/10 10:22:55;;;;;;;22.00;17.00;;;;;;;24.59;70.95;98615.53;5090967;28;20244;-84
2022/06/10 10:25:25;;;;;;;18.40;15.52;;;;;;;24.70;69.09;98621.88;5091025;28;20234;-84
2022/06/10 10:27:53;;;;;;;18.55;15.43;;;;;;;24.76;69.10;98619.22;5090839;28;20810;-87
2022/06/10 10:30:21;;;;;;;19.55;15.45;;;;;;;24.74;68.71;98617.81;5091447;28;20739;-84
2022/06/10 10:32:53;;;;;;;18.00;14.95;;;;;;;24.82;68.52;98607.88;5090919;28;20328;-88
2022/06/10 10:35:23;;;;;;;18.50;15.57;;;;;;;24.85;68.90;98619.75;5091014;28;20230;-88
2022/06/10 10:37:56;;;;;;;17.20;13.90;;;;;;;24.74;68.17;98613.38;5090606;28;20217;-89
2022/06/10 10:40:33;;;;;;;20.17;14.52;;;;;;;24.90;68.80;98601.59;5091112;28;20656;-90
2022/06/10 10:43:06;;;;;;;19.45;16.20;;;;;;;25.30;68.17;98609.06;5090799;28;20229;-85
2022/06/10 10:45:36;;;;;;;19.35;14.88;;;;;;;25.56;68.27;98607.16;5090803;28;20348;-89
2022/06/10 10:48:14;;;;;;;19.20;14.35;;;;;;;25.70;66.76;98621.69;5090976;28;20749;-89
2022/06/10 10:50:41;;;;;;;18.35;13.88;;;;;;;25.72;64.80;98609.19;5091219;28;20249;-90
2022/06/10 10:53:22;;;;;;;17.52;14.23;;;;;;;25.66;65.83;98610.09;5090544;28;20213;-89
2022/06/10 10:55:52;;;;;;;17.95;13.60;;;;;;;25.76;66.76;98610.34;5090369;28;20226;-88
2022/06/10 10:58:25;;;;;;;18.55;12.73;;;;;;;26.02;65.94;98600.56;5090477;28;20218;-85
2022/06/10 11:00:57;;;;;;;16.85;13.35;;;;;;;26.02;66.06;98600.56;5090332;28;20230;-87
2022/06/10 11:03:27;;;;;;;14.82;12.68;;;;;;;26.02;66.59;98587.47;5090314;28;20757;-89
2022/06/10 11:05:54;;;;;;;16.52;13.20;;;;;;;26.02;66.11;98582.22;5090244;28;20253;-84
2022/06/10 11:08:24;;;;;;;18.95;12.52;;;;;;;25.90;66.34;98588.22;5090456;28;20224;-86
2022/06/10 11:11:14;;;;;;;16.58;12.45;;;;;;;25.90;65.67;98590.06;5090263;28;20648;-90
2022/06/10 11:13:50;;;;;;;20.23;14.80;;;;;;;25.72;65.34;98585.63;5085315;28;20304;-89
2022/06/10 11:16:41;;;;;;;18.50;16.08;;;;;;;25.66;63.81;98583.91;5090320;28;20237;-87
2022/06/10 11:19:40;;;;;;;17.90;15.05;;;;;;;25.58;64.04;98586.81;5090247;28;20230;-88
2022/06/10 11:22:26;;;;;;;19.17;14.85;;;;;;;25.48;64.34;98588.13;5090015;28;20233;-89
2022/06/10 11:24:55;;;;;;;19.17;14.55;;;;;;;25.33;66.83;98592.91;5086472;28;20263;-85
2022/06/10 11:27:27;;;;;;;15.82;13.32;;;;;;;25.27;66.39;98593.78;5089947;28;20237;-89
2022/06/10 11:30:05;;;;;;;16.23;12.93;;;;;;;25.23;65.47;98590.03;5090135;28;20226;-88
2022/06/10 11:32:36;;;;;;;15.77;14.02;;;;;;;25.06;66.16;98585.31;5090101;28;20209;-85
2022/06/10 11:35:19;;;;;;;15.75;12.85;;;;;;;25.05;66.44;98573.28;5089633;28;20237;-85
2022/06/10 11:37:48;;;;;;;17.02;13.13;;;;;;;25.06;65.97;98569.63;5089803;28;20786;-84
2022/06/10 11:40:17;;;;;;;14.30;12.48;;;;;;;25.06;66.76;98564.41;5089724;28;20266;-85
2022/06/10 11:42:48;;;;;;;15.90;13.18;;;;;;;25.05;66.45;98557.56;5089542;28;20265;-88
2022/06/10 11:45:22;;;;;;;13.63;11.63;;;;;;;25.19;67.27;98557.44;5089851;28;20719;-90